createdAt,value
2022-11-20T00:01:07.137Z,1.80
2022-11-20T00:03:34.130Z,1.80
2022-11-20T00:06:04.418Z,1.80
2022-11-20T00:08:31.638Z,1.80
2022-11-20T00:10:58.626Z,1.80
2022-11-20T00:13:25.105Z,1.80
2022-11-20T00:15:57.796Z,1.70
2022-11-20T00:18:24.722Z,1.70
2022-11-20T00:20:51.633Z,1.70
2022-11-20T00:23:18.562Z,1.70
2022-11-20T00:25:45.036Z,1.70
2022-11-20T00:28:11.970Z,1.70
2022-11-20T00:30:38.959Z,1.80
2022-11-20T00:33:05.444Z,1.80
2022-11-20T00:35:32.372Z,1.80
2022-11-20T00:37:58.829Z,1.90
2022-11-20T00:40:25.767Z,1.80
2022-11-20T00:42:52.224Z,1.80
2022-11-20T00:45:19.139Z,1.80
2022-11-20T00:47:45.666Z,1.80
2022-11-20T00:50:12.672Z,1.90
2022-11-20T00:52:39.584Z,1.80
2022-11-20T00:55:06.285Z,1.80
2022-11-20T00:57:33.190Z,1.80
2022-11-20T01:00:00.123Z,1.70
2022-11-20T01:02:26.585Z,1.80
2022-11-20T01:04:53.499Z,1.70
2022-11-20T01:07:20.008Z,1.70
2022-11-20T01:09:46.961Z,1.60
2022-11-20T01:12:13.412Z,1.60
2022-11-20T01:14:40.414Z,1.60
2022-11-20T01:17:06.882Z,1.60
2022-11-20T01:19:33.809Z,1.60
2022-11-20T01:22:00.814Z,1.60
2022-11-20T01:24:27.283Z,1.60
2022-11-20T01:26:54.254Z,1.60
2022-11-20T01:29:23.048Z,1.70
2022-11-20T01:31:50.622Z,1.60
2022-11-20T01:34:18.941Z,1.60
2022-11-20T01:36:46.449Z,1.60
2022-11-20T01:39:14.799Z,1.60
2022-11-20T01:42:02.616Z,1.50
2022-11-20T01:44:49.727Z,1.50
2022-11-20T01:47:34.277Z,1.40
2022-11-20T01:50:05.474Z,1.30
2022-11-20T01:52:35.505Z,1.20
2022-11-20T01:55:07.756Z,1.20
2022-11-20T01:57:34.816Z,1.10
2022-11-20T02:00:05.290Z,1.00
2022-11-20T02:02:32.170Z,1.00
2022-11-20T02:05:02.162Z,0.90
2022-11-20T02:07:28.771Z,0.90
2022-11-20T02:09:58.711Z,0.80
2022-11-20T02:12:44.416Z,0.80
2022-11-20T02:15:10.941Z,0.80
2022-11-20T02:17:37.913Z,0.60
2022-11-20T02:20:05.254Z,0.60
2022-11-20T02:22:34.677Z,0.50
2022-11-20T02:25:02.588Z,0.50
2022-11-20T02:27:30.167Z,0.40
2022-11-20T02:29:59.170Z,0.30
2022-11-20T02:32:35.864Z,0.30
2022-11-20T02:35:10.013Z,0.30
2022-11-20T02:37:38.042Z,0.30
2022-11-20T02:40:05.298Z,0.20
2022-11-20T02:42:32.212Z,0.20
2022-11-20T02:44:59.121Z,0.10
2022-11-20T02:47:26.072Z,0.20
2022-11-20T02:49:52.547Z,0.20
2022-11-20T02:52:19.461Z,0.20
2022-11-20T02:54:46.377Z,0.30
2022-11-20T02:57:12.835Z,0.20
2022-11-20T02:59:39.761Z,0.50
2022-11-20T03:02:06.290Z,0.30
2022-11-20T03:04:33.234Z,0.30
2022-11-20T03:07:00.222Z,0.80
2022-11-20T03:09:27.191Z,0.30
2022-11-20T03:11:53.681Z,0.40
2022-11-20T03:14:20.669Z,0.30
2022-11-20T03:16:47.150Z,0.30
2022-11-20T03:19:14.806Z,0.30
2022-11-20T03:21:41.264Z,0.40
2022-11-20T03:24:08.326Z,0.40
2022-11-20T03:26:35.280Z,0.50
2022-11-20T03:29:03.394Z,0.60
2022-11-20T03:31:34.946Z,0.50
2022-11-20T03:34:01.895Z,0.50
2022-11-20T03:36:29.085Z,0.50
2022-11-20T03:38:56.442Z,0.50
2022-11-20T03:41:32.701Z,0.60
2022-11-20T03:44:00.544Z,0.60
2022-11-20T03:46:27.938Z,0.70
2022-11-20T03:48:55.013Z,0.60
2022-11-20T03:51:22.551Z,0.70
2022-11-20T03:53:50.013Z,0.70
2022-11-20T03:56:17.477Z,0.70
2022-11-20T03:58:44.782Z,0.70
2022-11-20T04:01:12.460Z,0.80
2022-11-20T04:03:39.890Z,0.80
2022-11-20T04:06:11.663Z,0.90
2022-11-20T04:08:38.840Z,1.00
2022-11-20T04:11:11.097Z,1.00
2022-11-20T04:13:38.072Z,1.00
2022-11-20T04:16:05.786Z,1.10
2022-11-20T04:18:32.768Z,1.10
2022-11-20T04:20:59.698Z,1.20
2022-11-20T04:23:28.851Z,1.20
2022-11-20T04:25:55.570Z,1.20
2022-11-20T04:28:22.026Z,1.20
2022-11-20T04:30:48.970Z,1.20
2022-11-20T04:33:15.471Z,1.20
2022-11-20T04:35:42.420Z,1.30
2022-11-20T04:38:08.898Z,1.30
2022-11-20T04:40:35.903Z,1.30
2022-11-20T04:43:02.375Z,1.30
2022-11-20T04:45:29.320Z,1.30
2022-11-20T04:47:56.235Z,1.40
2022-11-20T04:50:22.760Z,1.40
2022-11-20T04:52:49.672Z,1.30
2022-11-20T04:55:16.146Z,1.30
2022-11-20T04:57:43.090Z,1.30
2022-11-20T05:00:10.315Z,1.40
2022-11-20T05:02:37.317Z,1.40
2022-11-20T05:05:04.322Z,1.40
2022-11-20T05:07:30.817Z,1.50
2022-11-20T05:09:57.815Z,1.50
2022-11-20T05:12:24.735Z,1.40
2022-11-20T05:14:51.225Z,1.40
2022-11-20T05:17:18.299Z,1.40
2022-11-20T05:19:48.324Z,1.40
2022-11-20T05:22:17.484Z,1.40
2022-11-20T05:24:44.414Z,1.50
2022-11-20T05:27:10.866Z,1.50
2022-11-20T05:29:37.797Z,1.40
2022-11-20T05:32:04.439Z,1.40
2022-11-20T05:34:31.421Z,1.40
2022-11-20T05:36:58.348Z,1.40
2022-11-20T05:39:27.797Z,1.50
2022-11-20T05:42:14.245Z,1.50
2022-11-20T05:44:41.210Z,1.50
2022-11-20T05:47:08.125Z,1.50
2022-11-20T05:49:34.602Z,1.50
2022-11-20T05:52:01.517Z,1.50
2022-11-20T05:54:27.985Z,1.50
2022-11-20T05:56:54.896Z,1.40
2022-11-20T05:59:21.571Z,1.40
2022-11-20T06:01:48.764Z,1.40
2022-11-20T06:04:15.249Z,1.40
2022-11-20T06:06:42.205Z,1.40
2022-11-20T06:09:08.795Z,1.40
2022-11-20T06:11:35.722Z,1.40
2022-11-20T06:14:02.250Z,1.50
2022-11-20T06:16:28.753Z,1.40
2022-11-20T06:18:55.205Z,1.40
2022-11-20T06:21:23.031Z,1.40
2022-11-20T06:23:50.773Z,1.40
2022-11-20T06:26:19.305Z,1.40
2022-11-20T06:28:46.184Z,1.40
2022-11-20T06:31:15.010Z,1.40
2022-11-20T06:33:42.523Z,1.40
2022-11-20T06:36:11.285Z,1.40
2022-11-20T06:38:37.963Z,1.40
2022-11-20T06:41:05.343Z,1.40
2022-11-20T06:43:32.323Z,1.50
2022-11-20T06:45:59.497Z,1.50
2022-11-20T06:48:29.828Z,1.50
2022-11-20T06:50:57.236Z,1.50
2022-11-20T06:53:24.365Z,1.50
2022-11-20T06:55:51.948Z,1.40
2022-11-20T06:58:19.526Z,1.40
2022-11-20T07:00:46.090Z,1.40
2022-11-20T07:03:13.301Z,1.40
2022-11-20T07:05:40.270Z,1.30
2022-11-20T07:08:07.507Z,1.30
2022-11-20T07:10:34.429Z,1.30
2022-11-20T07:13:01.379Z,1.30
2022-11-20T07:15:28.345Z,1.40
2022-11-20T07:17:54.963Z,1.50
2022-11-20T07:20:22.073Z,1.40
2022-11-20T07:22:53.732Z,1.40
2022-11-20T07:25:20.189Z,1.40
2022-11-20T07:27:47.098Z,1.40
2022-11-20T07:30:15.343Z,1.50
2022-11-20T07:32:42.265Z,1.50
2022-11-20T07:35:09.058Z,1.50
2022-11-20T07:37:36.540Z,1.50
2022-11-20T07:40:03.149Z,1.50
2022-11-20T07:42:29.653Z,1.50
2022-11-20T07:44:56.568Z,1.60
2022-11-20T07:47:23.477Z,1.70
2022-11-20T07:49:49.928Z,1.60
2022-11-20T07:52:16.842Z,1.70
2022-11-20T07:54:43.299Z,1.80
2022-11-20T07:57:10.212Z,1.90
2022-11-20T07:59:36.719Z,1.80
2022-11-20T08:02:03.666Z,1.90
2022-11-20T08:04:30.146Z,2.00
2022-11-20T08:06:58.549Z,2.00
2022-11-20T08:09:25.754Z,2.10
2022-11-20T08:12:11.014Z,2.00
2022-11-20T08:14:37.924Z,2.10
2022-11-20T08:17:04.378Z,2.10
2022-11-20T08:19:31.318Z,2.10
2022-11-20T08:21:57.777Z,2.20
2022-11-20T08:24:24.318Z,2.20
2022-11-20T08:26:51.330Z,2.30
2022-11-20T08:29:17.796Z,2.30
2022-11-20T08:31:44.704Z,2.40
2022-11-20T08:34:14.910Z,2.30
2022-11-20T08:36:44.793Z,2.30
2022-11-20T08:39:14.184Z,2.40
2022-11-20T08:41:41.303Z,2.50
2022-11-20T08:44:08.335Z,2.50
2022-11-20T08:46:37.683Z,2.50
2022-11-20T08:49:09.064Z,2.60
2022-11-20T08:51:36.160Z,2.60
2022-11-20T08:54:03.809Z,2.70
2022-11-20T08:56:30.290Z,2.70
2022-11-20T09:01:43.808Z,2.80
2022-11-20T09:04:10.879Z,2.80
2022-11-20T09:06:37.804Z,2.80
2022-11-20T09:09:06.799Z,2.90
2022-11-20T09:11:34.097Z,3.00
2022-11-20T09:14:01.515Z,3.00
2022-11-20T09:16:28.440Z,3.10
2022-11-20T09:21:41.849Z,3.20
2022-11-20T09:24:08.331Z,3.30
2022-11-20T09:26:34.788Z,3.40
2022-11-20T09:29:01.750Z,3.40
2022-11-20T09:31:28.282Z,3.50
2022-11-20T09:33:55.285Z,3.50
2022-11-20T09:36:21.800Z,3.60
2022-11-20T09:38:49.071Z,3.60
2022-11-20T09:41:38.273Z,3.60
2022-11-20T09:44:05.159Z,3.70
2022-11-20T09:46:45.420Z,3.70
2022-11-20T09:49:32.612Z,3.80
2022-11-20T09:52:01.890Z,3.70
2022-11-20T09:54:31.717Z,3.70
2022-11-20T09:57:03.492Z,3.70
2022-11-20T09:59:30.390Z,3.50
2022-11-20T10:01:58.189Z,3.50
2022-11-20T10:04:25.576Z,3.40
2022-11-20T10:09:57.432Z,3.40
2022-11-20T10:12:32.931Z,3.40
2022-11-20T10:15:13.659Z,3.50
2022-11-20T10:17:59.495Z,3.60
2022-11-20T10:20:29.049Z,3.80
2022-11-20T10:23:13.986Z,3.90
2022-11-20T10:25:42.800Z,4.10
2022-11-20T10:28:17.357Z,4.30
2022-11-20T10:30:45.352Z,4.20
2022-11-20T10:33:20.501Z,3.80
2022-11-20T10:35:53.356Z,3.70
2022-11-20T10:38:26.704Z,3.70
2022-11-20T10:41:18.874Z,3.70
2022-11-20T10:43:47.278Z,3.80
2022-11-20T10:46:18.051Z,3.80
2022-11-20T10:48:46.428Z,3.70
2022-11-20T10:51:28.149Z,3.80
2022-11-20T10:54:32.453Z,3.70
2022-11-20T10:57:11.250Z,3.70
2022-11-20T10:59:56.912Z,3.80
2022-11-20T11:02:25.843Z,3.80
2022-11-20T11:04:56.230Z,4.00
2022-11-20T11:07:28.763Z,4.20
2022-11-20T11:09:57.021Z,4.20
2022-11-20T11:12:25.848Z,4.10
2022-11-20T11:14:53.845Z,4.30
2022-11-20T11:17:28.659Z,4.10
2022-11-20T11:20:06.404Z,4.60
2022-11-20T11:22:33.859Z,4.50
2022-11-20T11:25:00.850Z,4.40
2022-11-20T11:27:27.764Z,4.40
2022-11-20T11:30:14.915Z,4.30
2022-11-20T11:32:41.416Z,4.10
2022-11-20T11:35:19.356Z,4.00
2022-11-20T11:37:48.481Z,4.00
2022-11-20T11:40:23.970Z,4.00
2022-11-20T11:42:57.296Z,4.00
2022-11-20T11:45:25.455Z,4.00
2022-11-20T11:47:52.826Z,4.00
2022-11-20T11:50:21.580Z,4.00
2022-11-20T11:53:07.117Z,4.00
2022-11-20T11:55:45.449Z,4.00
2022-11-20T11:58:15.356Z,4.00
2022-11-20T12:00:46.142Z,4.00
2022-11-20T12:03:19.384Z,3.90
2022-11-20T12:05:48.443Z,3.80
2022-11-20T12:08:18.509Z,3.80
2022-11-20T12:10:49.405Z,3.80
2022-11-20T12:13:21.927Z,3.80
2022-11-20T12:15:48.830Z,3.80
2022-11-20T12:18:16.805Z,3.80
2022-11-20T12:20:46.914Z,3.80
2022-11-20T12:23:28.542Z,3.80
2022-11-20T12:25:58.170Z,3.90
2022-11-20T12:28:31.105Z,3.90
2022-11-20T12:31:07.016Z,3.90
2022-11-20T12:33:36.525Z,4.00
2022-11-20T12:36:15.739Z,4.00
2022-11-20T12:39:01.112Z,3.90
2022-11-20T12:42:02.134Z,3.90
2022-11-20T12:44:50.248Z,4.00
2022-11-20T12:47:43.337Z,3.90
2022-11-20T12:50:10.267Z,3.90
2022-11-20T12:52:36.714Z,3.80
2022-11-20T12:55:11.678Z,3.80
2022-11-20T12:57:44.733Z,3.80
2022-11-20T13:00:15.353Z,3.70
2022-11-20T13:02:44.872Z,3.60
2022-11-20T13:05:11.844Z,3.60
2022-11-20T13:07:38.686Z,3.60
2022-11-20T13:10:11.701Z,3.60
2022-11-20T13:12:46.859Z,3.70
2022-11-20T13:15:32.645Z,3.80
2022-11-20T13:18:00.904Z,3.90
2022-11-20T13:20:27.751Z,3.80
2022-11-20T13:23:01.497Z,3.80
2022-11-20T13:25:35.332Z,3.60
2022-11-20T13:28:05.065Z,3.50
2022-11-20T13:30:32.185Z,3.40
2022-11-20T13:33:08.410Z,3.50
2022-11-20T13:35:36.015Z,3.60
2022-11-20T13:38:05.990Z,3.60
2022-11-20T13:40:33.364Z,3.60
2022-11-20T13:43:03.114Z,3.60
2022-11-20T13:45:31.620Z,3.60
2022-11-20T13:48:00.418Z,3.60
2022-11-20T13:50:47.631Z,3.60
2022-11-20T13:53:26.784Z,3.60
2022-11-20T13:56:17.531Z,3.60
2022-11-20T13:59:05.425Z,3.60
2022-11-20T14:01:33.526Z,3.60
2022-11-20T14:04:07.821Z,3.70
2022-11-20T14:06:39.505Z,3.70
2022-11-20T14:09:06.427Z,3.60
2022-11-20T14:11:33.461Z,3.60
2022-11-20T14:14:05.067Z,3.50
2022-11-20T14:16:33.633Z,3.40
2022-11-20T14:19:21.504Z,3.30
2022-11-20T14:21:47.948Z,3.30
2022-11-20T14:24:15.005Z,3.20
2022-11-20T14:26:45.452Z,3.30
2022-11-20T14:29:16.575Z,3.30
2022-11-20T14:31:44.096Z,3.30
2022-11-20T14:34:18.181Z,3.30
2022-11-20T14:36:45.297Z,3.30
2022-11-20T14:39:38.783Z,3.30
2022-11-20T14:42:16.282Z,3.30
2022-11-20T14:44:43.466Z,3.20
2022-11-20T14:47:12.057Z,3.20
2022-11-20T14:49:39.107Z,3.10
2022-11-20T14:52:17.189Z,3.00
2022-11-20T14:54:51.140Z,2.90
2022-11-20T14:57:22.929Z,2.80
2022-11-20T14:59:49.481Z,2.70
2022-11-20T15:02:15.991Z,2.60
2022-11-20T15:04:50.379Z,2.50
2022-11-20T15:07:27.588Z,2.40
2022-11-20T15:10:08.487Z,2.20
2022-11-20T15:12:37.114Z,2.10
2022-11-20T15:15:04.274Z,2.00
2022-11-20T15:17:31.710Z,1.90
2022-11-20T15:19:58.406Z,1.90
2022-11-20T15:22:24.872Z,1.80
2022-11-20T15:24:51.392Z,1.80
2022-11-20T15:27:18.488Z,1.80
2022-11-20T15:29:44.958Z,1.80
2022-11-20T15:32:13.627Z,1.80
2022-11-20T15:34:40.402Z,1.80
2022-11-20T15:37:07.328Z,1.80
2022-11-20T15:39:33.863Z,1.80
2022-11-20T15:42:00.317Z,1.80
2022-11-20T15:44:27.273Z,1.90
2022-11-20T15:46:54.244Z,1.90
2022-11-20T15:49:22.582Z,1.90
2022-11-20T15:51:50.633Z,1.90
2022-11-20T15:54:20.928Z,2.00
2022-11-20T15:56:48.299Z,2.00
2022-11-20T15:59:18.356Z,2.00
2022-11-20T16:01:45.164Z,2.00
2022-11-20T16:04:16.115Z,0.80
2022-11-20T16:06:42.678Z,2.00
2022-11-20T16:09:09.896Z,2.10
2022-11-20T16:11:39.391Z,2.10
2022-11-20T16:14:25.296Z,2.10
2022-11-20T16:16:52.142Z,2.10
2022-11-20T16:19:18.992Z,2.10
2022-11-20T16:21:45.952Z,2.00
2022-11-20T16:24:13.790Z,2.00
2022-11-20T16:26:41.159Z,2.00
2022-11-20T16:29:07.920Z,2.00
2022-11-20T16:31:36.190Z,2.00
2022-11-20T16:34:08.593Z,2.10
2022-11-20T16:36:40.673Z,2.00
2022-11-20T16:39:07.422Z,2.10
2022-11-20T16:41:35.365Z,2.00
2022-11-20T16:44:02.812Z,2.00
2022-11-20T16:46:31.048Z,1.90
2022-11-20T16:49:02.303Z,1.90
2022-11-20T16:51:29.863Z,1.90
2022-11-20T16:53:57.117Z,2.00
2022-11-20T16:56:24.815Z,2.00
2022-11-20T16:58:52.273Z,2.00
2022-11-20T17:01:21.742Z,2.00
2022-11-20T17:03:54.638Z,2.00
2022-11-20T17:06:22.610Z,2.00
2022-11-20T17:08:49.106Z,1.90
2022-11-20T17:11:16.834Z,1.90
2022-11-20T17:13:43.308Z,1.90
2022-11-20T17:16:11.357Z,1.80
2022-11-20T17:18:38.461Z,1.80
2022-11-20T17:21:05.416Z,1.80
2022-11-20T17:23:33.171Z,1.60
2022-11-20T17:26:04.654Z,1.50
2022-11-20T17:28:31.915Z,1.50
2022-11-20T17:31:02.448Z,1.40
2022-11-20T17:33:29.381Z,1.30
2022-11-20T17:35:56.336Z,1.30
2022-11-20T17:38:23.056Z,1.20
2022-11-20T17:40:50.011Z,1.20
2022-11-20T17:43:16.970Z,1.20
2022-11-20T17:45:44.081Z,1.10
2022-11-20T17:48:11.295Z,1.00
2022-11-20T17:50:37.802Z,1.00
2022-11-20T17:53:04.821Z,1.00
2022-11-20T17:55:55.458Z,0.90
2022-11-20T17:58:22.809Z,0.90
2022-11-20T18:00:49.329Z,0.80
2022-11-20T18:03:16.572Z,0.80
2022-11-20T18:05:43.089Z,0.80
2022-11-20T18:08:10.021Z,0.80
2022-11-20T18:10:36.537Z,0.80
2022-11-20T18:13:03.122Z,0.90
2022-11-20T18:15:30.389Z,0.80
2022-11-20T18:17:57.337Z,0.80
2022-11-20T18:20:29.753Z,0.80
2022-11-20T18:22:58.677Z,0.70
2022-11-20T18:25:25.641Z,0.70
2022-11-20T18:27:52.109Z,0.70
2022-11-20T18:30:19.057Z,0.80
2022-11-20T18:32:45.526Z,0.80
2022-11-20T18:35:12.497Z,0.80
2022-11-20T18:37:39.429Z,0.90
2022-11-20T18:40:06.284Z,0.80
2022-11-20T18:42:51.974Z,0.80
2022-11-20T18:45:18.450Z,0.80
2022-11-20T18:47:45.367Z,0.90
2022-11-20T18:50:11.853Z,0.90
2022-11-20T18:52:40.283Z,1.00
2022-11-20T18:55:07.483Z,1.00
2022-11-20T18:57:34.177Z,1.00
2022-11-20T19:00:07.889Z,0.90
2022-11-20T19:02:41.032Z,0.90
2022-11-20T19:05:09.427Z,0.80
2022-11-20T19:07:36.000Z,0.80
2022-11-20T19:10:04.157Z,0.70
2022-11-20T19:12:31.834Z,0.70
2022-11-20T19:14:58.340Z,0.60
2022-11-20T19:17:25.566Z,0.60
2022-11-20T19:19:54.695Z,0.50
2022-11-20T19:22:22.103Z,0.40
2022-11-20T19:24:49.622Z,0.40
2022-11-20T19:27:17.143Z,0.50
2022-11-20T19:29:43.704Z,0.40
2022-11-20T19:32:10.297Z,0.30
2022-11-20T19:34:36.792Z,0.30
2022-11-20T19:37:03.340Z,0.20
2022-11-20T19:39:29.804Z,0.20
2022-11-20T19:41:56.737Z,0.20
2022-11-20T19:44:23.198Z,0.20
2022-11-20T19:46:50.819Z,0.20
2022-11-20T19:49:17.762Z,0.10
2022-11-20T19:51:48.012Z,0.10
2022-11-20T19:54:15.528Z,0.00
2022-11-20T19:56:42.503Z,0.10
2022-11-20T19:59:09.061Z,0.10
2022-11-20T20:01:36.086Z,0.10
2022-11-20T20:04:05.579Z,0.10
2022-11-20T20:06:34.371Z,0.10
2022-11-20T20:09:05.697Z,0.10
2022-11-20T20:11:32.980Z,0.10
2022-11-20T20:14:04.092Z,0.00
2022-11-20T20:16:30.778Z,0.00
2022-11-20T20:18:58.416Z,-0.10
2022-11-20T20:21:25.144Z,-0.20
2022-11-20T20:23:55.412Z,-0.20
2022-11-20T20:26:23.176Z,-0.30
2022-11-20T20:28:50.033Z,-0.30
2022-11-20T20:31:19.242Z,-0.20
2022-11-20T20:33:45.969Z,-0.40
2022-11-20T20:36:13.377Z,-0.40
2022-11-20T20:38:40.529Z,-0.40
2022-11-20T20:41:07.034Z,-0.40
2022-11-20T20:43:53.962Z,-0.50
2022-11-20T20:46:21.080Z,-0.50
2022-11-20T20:48:53.006Z,-0.60
2022-11-20T20:51:20.834Z,-0.60
2022-11-20T20:53:47.844Z,-0.60
2022-11-20T20:56:14.553Z,-0.70
2022-11-20T20:58:41.560Z,-0.70
2022-11-20T21:01:09.616Z,-0.70
2022-11-20T21:03:36.918Z,-0.70
2022-11-20T21:06:04.290Z,-0.80
2022-11-20T21:08:31.265Z,-0.80
2022-11-20T21:11:11.860Z,-0.90
2022-11-20T21:13:40.056Z,-0.90
2022-11-20T21:16:07.478Z,-0.90
2022-11-20T21:18:34.722Z,-0.90
2022-11-20T21:21:22.493Z,-0.90
2022-11-20T21:23:49.406Z,-0.80
2022-11-20T21:26:16.452Z,-0.80
2022-11-20T21:28:43.139Z,-0.70
2022-11-20T21:31:11.585Z,-0.70
2022-11-20T21:33:39.927Z,-0.70
2022-11-20T21:36:10.785Z,-0.60
2022-11-20T21:38:37.299Z,-0.60
2022-11-20T21:41:05.113Z,-0.60
2022-11-20T21:43:32.420Z,-0.50
2022-11-20T21:46:05.756Z,-0.50
2022-11-20T21:48:33.716Z,-0.50
2022-11-20T21:51:14.210Z,-0.50
2022-11-20T21:53:41.599Z,-0.40
2022-11-20T21:56:09.217Z,-0.50
2022-11-20T21:58:36.302Z,-0.40
2022-11-20T22:01:10.202Z,-0.40
2022-11-20T22:03:37.560Z,-0.40
2022-11-20T22:06:05.400Z,-0.40
2022-11-20T22:08:33.818Z,-0.30
2022-11-20T22:11:01.361Z,-0.30
2022-11-20T22:13:47.100Z,-0.30
2022-11-20T22:16:13.941Z,-0.30
2022-11-20T22:18:51.303Z,-0.40
2022-11-20T22:21:19.078Z,-0.40
2022-11-20T22:23:46.139Z,-0.40
2022-11-20T22:26:13.934Z,-0.40
2022-11-20T22:28:40.910Z,-0.40
2022-11-20T22:31:08.882Z,-0.40
2022-11-20T22:33:36.199Z,-0.40
2022-11-20T22:36:10.261Z,-0.40
2022-11-20T22:38:39.438Z,-0.50
2022-11-20T22:41:07.654Z,-0.50
2022-11-20T22:43:34.659Z,-0.50
2022-11-20T22:46:03.120Z,-0.60
2022-11-20T22:48:29.594Z,-0.60
2022-11-20T22:51:17.262Z,-0.60
2022-11-20T22:53:44.311Z,-0.60
2022-11-20T22:56:12.405Z,-0.60
2022-11-20T22:58:40.156Z,-0.60
2022-11-20T23:01:11.394Z,-0.70
2022-11-20T23:03:40.141Z,-0.70
2022-11-20T23:06:07.040Z,-0.80
2022-11-20T23:08:34.185Z,-0.80
2022-11-20T23:11:00.620Z,-0.80
2022-11-20T23:13:27.708Z,-0.80
2022-11-20T23:15:55.021Z,-0.80
2022-11-20T23:18:22.216Z,-0.80
2022-11-20T23:20:48.692Z,-0.80
2022-11-20T23:23:15.572Z,-0.80
2022-11-20T23:25:42.050Z,-0.80
2022-11-20T23:28:08.964Z,-0.80
2022-11-20T23:30:35.507Z,-0.80
2022-11-20T23:33:02.058Z,-0.90
2022-11-20T23:35:28.940Z,-0.90
2022-11-20T23:37:55.399Z,-0.90
2022-11-20T23:40:21.862Z,-1.00
2022-11-20T23:43:07.562Z,-1.00
2022-11-20T23:45:37.546Z,-1.10
2022-11-20T23:48:04.764Z,-1.10
2022-11-20T23:50:31.637Z,-1.20
2022-11-20T23:52:58.094Z,-1.10
2022-11-20T23:55:24.972Z,-1.20
2022-11-20T23:57:51.855Z,-1.10
